ADDS METAR Data INFO
IDs: Format: Raw Decoded Include TAF

Data at: 2112 UTC 20 Nov 2017

METAR for:KJCT (Junction/Kimble Cnty, TX, US)
Text:KJCT 202051Z AUTO 22011G18KT 10SM CLR 19/00 A3001 RMK AO2 SLP144 T01890000 56035
Temperature: 18.9°C ( 66°F)
Dewpoint: 0.0°C ( 32°F) [RH = 28%]
Pressure (altimeter):30.01 inches Hg (1016.3 mb) [Sea level pressure: 1014.4 mb]
Winds:from the SW (220 degrees) at 13 MPH (11 knots; 5.7 m/s) gusting to 21 MPH (18 knots; 9.3 m/s)
Visibility:10 or more sm (16+ km)
Ceiling:at least 12,000 feet AGL
Clouds:sky clear below 12,000 feet AGL
QC Flag:automated observation with no human augmentation